WEATHER DATA

YESTERDAY
Time Temp. Dewp. Hum. Wind dir Wind speed Wind gust Bar. 1h Prec. 24h Prec.
00:00 19.8 11.8 60 18 0.6 1.9 1021.9 0.0000 0.0000
00:11 19.6 11.9 61 18 0.6 1.9 1021.9 0.0000 0.0000
00:21 19.4 11.9 62 18 0.6 1.9 1022 0.0000 0.0000
00:30 19.3 12.1 63 18 0.6 1.9 1022 0.0000 0.0000
00:41 19 11.8 63 18 0.6 1.9 1021.9 0.0000 0.0000
00:51 18.9 11.9 64 18 0.6 1.9 1021.9 0.0000 0.0000
01:01 18.7 11.8 64 18 0.6 1.9 1021.8 0.0000 0.0000
01:11 18.5 11.8 65 18 0.6 1.9 1021.8 0.0000 0.0000
01:21 18.4 11.7 65 18 0.6 1.9 1021.9 0.0000 0.0000
01:31 18.2 11.5 65 18 0.6 1.9 1021.7 0.0000 0.0000
01:41 18 11.6 66 18 0.6 1.9 1021.8 0.0000 0.0000
01:51 17.8 11.4 66 18 0.6 1.9 1021.8 0.0000 0.0000
02:01 17.6 11.4 67 18 0.6 1.9 1021.6 0.0000 0.0000
02:26 17.2 11.2 68 18 0.6 1.9 1021.6 0.0000 0.0000
02:36 16.8 11.1 69 18 0.6 1.9 1021.6 0.0000 0.0000
02:46 16.5 11.2 71 18 0.6 1.9 1021.5 0.0000 0.0000
02:56 16.4 11.3 72 18 0.6 1.9 1021.6 0.0000 0.0000
03:06 16.2 11.2 72 18 0.6 1.9 1021.6 0.0000 0.0000
03:16 16.2 11.2 72 18 0.6 1.9 1021.5 0.0000 0.0000
03:26 16.2 11.2 72 18 0.6 1.9 1021.7 0.0000 0.0000
03:37 16.1 11.1 72 18 0.6 1.9 1021.9 0.0000 0.0000
03:46 16.1 11.1 72 18 0.6 1.9 1021.9 0.0000 0.0000
03:56 16 11 72 18 0.6 1.9 1021.9 0.0000 0.0000
04:07 15.8 11 73 18 0.6 1.9 1021.7 0.0000 0.0000
04:17 15.7 10.9 73 18 0.6 1.9 1021.9 0.0000 0.0000
04:26 15.6 10.8 73 18 0.6 1.9 1021.9 0.0000 0.0000
04:36 15.5 10.9 74 18 0.6 1.9 1021.8 0.0000 0.0000
04:47 15.4 10.8 74 18 0.6 1.9 1021.9 0.0000 0.0000
04:57 15.3 10.7 74 18 0.6 1.9 1021.9 0.0000 0.0000
05:06 15.3 10.7 74 18 0.6 1.9 1021.8 0.0000 0.0000
05:17 15.2 10.6 74 18 0.6 1.9 1021.8 0.0000 0.0000
05:32 14.7 10.5 76 18 0.6 1.9 1021.9 0.0000 0.0000
05:41 14.4 10.4 77 18 0.6 1.9 1022 0.0000 0.0000
05:52 14.2 10.4 78 18 0.6 1.9 1021.9 0.0000 0.0000
06:07 14.2 10.6 79 18 0.6 1.9 1021.9 0.0000 0.0000
06:17 14.2 10.4 78 18 0.6 1.9 1022 0.0000 0.0000
06:27 14.2 10.2 77 18 0.6 1.9 1022 0.0000 0.0000
06:37 14.2 10.4 78 18 0.6 1.9 1022 0.0000 0.0000
06:47 14.2 10.2 77 18 0.6 1.9 1021.9 0.0000 0.0000
06:57 14.1 10.3 78 18 0.6 1.9 1022 0.0000 0.0000
07:07 14.1 10.5 79 18 0.6 1.9 1022.1 0.0000 0.0000
07:27 14.1 10.5 79 18 0.6 1.9 1022.3 0.0000 0.0000
07:38 14.2 10.4 78 18 0.6 1.9 1022.3 0.0000 0.0000
07:47 14.3 10.5 78 18 0.6 1.9 1022.3 0.0000 0.0000
07:57 14.5 10.7 78 18 0.6 1.9 1022.3 0.0000 0.0000
08:07 14.7 10.9 78 18 0.6 1.9 1022.2 0.0000 0.0000
08:18 15 11 77 18 0.6 1.9 1022.2 0.0000 0.0000
08:27 15.4 11.4 77 18 0.6 1.9 1022.2 0.0000 0.0000
08:48 16.3 11.5 73 18 0.6 1.9 1022.3 0.0000 0.0000
08:58 17 11.7 71 18 0.6 1.9 1022.2 0.0000 0.0000
09:07 17.6 12.1 70 18 0.6 1.9 1022.3 0.0000 0.0000
09:18 18 12 68 18 0.6 1.9 1022.2 0.0000 0.0000
09:28 18.4 12.4 68 18 0.6 1.9 1022.4 0.0000 0.0000
09:38 18.8 12.3 66 18 0.6 1.9 1022.3 0.0000 0.0000
09:47 19.3 12.3 64 18 0.6 1.9 1022.3 0.0000 0.0000
09:58 19.8 12.6 63 18 0.6 1.9 1022.3 0.0000 0.0000
10:08 20.2 12.4 61 18 0.6 1.9 1022.3 0.0000 0.0000
10:18 20.6 12.8 61 18 0.6 1.9 1022.2 0.0000 0.0000
10:28 21 12.7 59 18 0.6 1.9 1022.2 0.0000 0.0000
10:38 21.4 12.8 58 18 0.6 1.9 1022.2 0.0000 0.0000
10:48 21.7 13.1 58 18 0.6 1.9 1022.2 0.0000 0.0000
10:57 22 12.8 56 18 0.6 1.9 1022 0.0000 0.0000
11:08 22.5 13 55 18 0.6 1.9 1022.1 0.0000 0.0000
11:18 23 13.2 54 18 0.6 1.9 1022 0.0000 0.0000
11:28 23.5 13.1 52 18 0.6 1.9 1022 0.0000 0.0000
11:38 23.9 12.9 50 18 0.6 1.9 1021.7 0.0000 0.0000
11:48 24.5 13.1 49 18 0.6 1.9 1021.7 0.0000 0.0000
11:58 24.9 12.5 46 18 0.6 1.9 1021.6 0.0000 0.0000
12:08 25.5 12.7 45 18 0.6 1.9 1021.4 0.0000 0.0000
12:18 25.8 12.6 44 18 0.6 1.9 1021.3 0.0000 0.0000
12:28 26.1 12.9 44 18 0.6 1.9 1021.2 0.0000 0.0000
12:38 26.4 12.8 43 18 0.6 1.9 1021.1 0.0000 0.0000
12:49 26.7 12.7 42 18 0.6 1.9 1021.2 0.0000 0.0000
12:58 27 13 42 18 0.6 1.9 1021.1 0.0000 0.0000
13:08 27.3 13.3 42 18 0.6 1.9 1020.9 0.0000 0.0000
13:18 27.6 13.2 41 18 0.6 1.9 1021 0.0000 0.0000
13:29 27.8 13 40 18 0.6 1.9 1020.8 0.0000 0.0000
13:38 28.1 13.2 40 18 0.6 1.9 1020.6 0.0000 0.0000
13:48 28.3 13.4 40 18 0.6 1.9 1020.6 0.0000 0.0000
13:59 28.6 13.7 40 18 0.6 1.9 1020.5 0.0000 0.0000
14:08 28.8 13.5 39 18 0.6 1.9 1020.5 0.0000 0.0000
14:18 29 14 40 18 0.6 1.9 1020.4 0.0000 0.0000
14:29 29.2 14.2 40 18 0.6 1.9 1020.2 0.0000 0.0000
14:39 29.6 14.2 39 18 0.6 1.9 1020.2 0.0000 0.0000
14:48 29.8 14.4 39 18 0.6 1.9 1019.9 0.0000 0.0000
15:09 30.2 14.7 39 18 0.6 1.9 1019.8 0.0000 0.0000
15:19 30.4 14.9 39 18 0.6 1.9 1019.8 0.0000 0.0000
15:28 30.6 15.1 39 18 0.6 1.9 1019.6 0.0000 0.0000
15:39 31 15.4 39 18 0.6 1.9 1019.4 0.0000 0.0000
15:49 31.4 15.4 38 18 0.6 1.9 1019.2 0.0000 0.0000
15:59 31.5 15.1 37 18 0.6 1.9 1019.1 0.0000 0.0000
16:08 31.7 15.2 37 18 0.6 1.9 1018.9 0.0000 0.0000
16:19 31.8 15.3 37 18 0.6 1.9 1018.8 0.0000 0.0000
16:29 31.8 15.3 37 18 0.6 1.9 1018.8 0.0000 0.0000
16:39 31.5 15.1 37 18 0.6 1.9 1018.7 0.0000 0.0000
16:49 31.3 15.3 38 18 0.6 1.9 1018.8 0.0000 0.0000
16:59 31.2 14.8 37 18 0.6 1.9 1018.5 0.0000 0.0000
17:09 31 15 38 18 0.6 1.9 1018.4 0.0000 0.0000
17:19 30.8 14.9 38 18 0.6 1.9 1018.4 0.0000 0.0000
17:39 30.6 15.1 39 18 0.6 1.9 1018.1 0.0000 0.0000
17:59 30.3 14.8 39 18 0.6 1.9 1018.1 0.0000 0.0000
18:09 30.3 14.8 39 18 0.6 1.9 1018.2 0.0000 0.0000
18:19 30.1 14.6 39 18 0.6 1.9 1018.1 0.0000 0.0000
18:29 30 14.1 38 18 0.6 1.9 1018 0.0000 0.0000
18:39 29.9 13.6 37 18 0.6 1.9 1018 0.0000 0.0000
18:49 29.8 14 38 18 0.6 1.9 1017.9 0.0000 0.0000
18:59 29.7 13.5 37 18 0.6 1.9 1017.9 0.0000 0.0000
19:10 29.5 13.7 38 18 0.6 1.9 1017.8 0.0000 0.0000
19:19 29.4 13.6 38 18 0.6 1.9 1017.7 0.0000 0.0000
19:29 29.2 13.4 38 18 0.6 1.9 1017.8 0.0000 0.0000
19:40 29.1 13.7 39 18 0.6 1.9 1017.8 0.0000 0.0000
19:50 28.9 13.6 39 18 0.6 1.9 1017.7 0.0000 0.0000
19:59 28.7 13.8 40 18 0.6 1.9 1017.8 0.0000 0.0000
20:20 28.1 13.6 41 18 0.6 1.9 1017.9 0.0000 0.0000
20:30 27.8 13.7 42 18 0.6 1.9 1017.8 0.0000 0.0000
20:39 27.4 13.7 43 18 0.6 1.9 1017.8 0.0000 0.0000
20:50 27 14.1 45 18 0.6 1.9 1017.9 0.0000 0.0000
21:00 26.4 15.5 51 18 0.6 1.9 1017.9 0.0000 0.0000
21:19 25.4 14.5 51 18 0.6 1.9 1017.9 0.0000 0.0000
21:30 24.9 14.1 51 18 0.6 1.9 1018 0.0000 0.0000
21:40 24.6 14.1 52 18 0.6 1.9 1018.2 0.0000 0.0000
21:50 24.3 13.8 52 18 0.6 1.9 1018.1 0.0000 0.0000
22:00 24.1 13.3 51 18 0.6 1.9 1018.1 0.0000 0.0000
22:11 23.9 13.5 52 18 0.6 1.9 1018.3 0.0000 0.0000
22:20 23.7 13.3 52 18 0.6 1.9 1018.3 0.0000 0.0000
22:30 23.6 13.8 54 18 0.6 1.9 1018.5 0.0000 0.0000
22:41 23.4 13.6 54 18 0.6 1.9 1018.4 0.0000 0.0000
22:51 23.2 13.7 55 18 0.6 1.9 1018.4 0.0000 0.0000
23:00 23 13.5 55 18 0.6 1.9 1018.5 0.0000 0.0000
23:11 22.8 13.8 57 18 0.6 1.9 1018.5 0.0000 0.0000
23:21 22.6 13.7 57 18 0.6 1.9 1018.6 0.0000 0.0000
23:30 22.5 13.8 58 18 0.6 1.9 1018.7 0.0000 0.0000
23:40 22.4 13.7 58 18 0.6 1.9 1018.8 0.0000 0.0000
23:51 22.2 13.6 58 18 0.6 1.9 1018.9 0.0000 0.0000

DAY STATISTIC

2018-08-19
TEMPERATURE
AVERAGE
22.6
HIGH
31.8
16:19
LOW
14.1
06:57
PRESSURE
AVERAGE
1020.5
HIGH
1022.4
09:28
LOW
1017.7
19:19
DEWPOINT
AVERAGE
12.7
HIGH
15.5
21:00
LOW
10.2
06:27
HUMIDITY
AVERAGE
56
HIGH
79
06:07
LOW
37
15:59
WIND SPEED
AVERAGE
0.6
HIGH
0.6
00:00
WIND GUST
AVERAGE
1.9
HIGH
1.9
00:00
WIND DIRECTION
PREVAILING
N
100%
N
100.0
NE
0.0
E
0.0
SE
0.0
S
0.0
SW
0.0
W
0.0
NW
0.0
PRECIPITATION
RAIN HOUR
0.0
RAIN DAY
0.0
TEMPERATURE (°C)
LOW
14.1
HIGH
31.8
AVERAGE
22.6
PRESSURE (hpa)
LOW
1017.7
HIGH
1022.4
AVERAGE
1020.5
DEVICE